<?xml version="1.0" encoding="UTF-8" standalone="no" ?>
<gpx xmlns="http://www.topografix.com/GPX/1/1" xmlns:xsi="http://www.w3.org/2001/XMLSchema-instance" xsi:schemaLocation="http://www.topografix.com/GPX/1/1 http://www.topografix.com/GPX/1/1/gpx.xsd" version="1.1" creator="VisuGPX - https://www.visugpx.com">
  <metadata>
    <name>Vacances 2021</name>
  </metadata>
  <trk>
    <name><![CDATA[Journal actif: 2021-07-22 16:46]]></name>
    <trkseg>
      <trkpt lat="49.3053" lon="6.15911">
        <ele>124.15</ele>
        <time>2021-07-22T18:46:29Z</time>
      </trkpt>
      <trkpt lat="49.30513" lon="6.15926">
        <ele>124.15</ele>
        <time>2021-07-22T18:47:05Z</time>
      </trkpt>
      <trkpt lat="49.30511" lon="6.15929">
        <ele>124.15</ele>
        <time>2021-07-22T18:47:06Z</time>
      </trkpt>
      <trkpt lat="49.30543" lon="6.15969">
        <ele>124.15</ele>
        <time>2021-07-22T18:47:15Z</time>
      </trkpt>
      <trkpt lat="49.30553" lon="6.1602">
        <ele>124.15</ele>
        <time>2021-07-22T18:47:20Z</time>
      </trkpt>
      <trkpt lat="49.30554" lon="6.16026">
        <ele>124.15</ele>
        <time>2021-07-22T18:47:21Z</time>
      </trkpt>
      <trkpt lat="49.30554" lon="6.16026">
        <ele>124.15</ele>
        <time>2021-07-22T18:47:22Z</time>
      </trkpt>
      <trkpt lat="49.30555" lon="6.16029">
        <ele>123.67</ele>
        <time>2021-07-22T18:47:35Z</time>
      </trkpt>
      <trkpt lat="49.30531" lon="6.16045">
        <ele>123.67</ele>
        <time>2021-07-22T18:47:43Z</time>
      </trkpt>
      <trkpt lat="49.30534" lon="6.16079">
        <ele>123.67</ele>
        <time>2021-07-22T18:47:45Z</time>
      </trkpt>
      <trkpt lat="49.30529" lon="6.16081">
        <ele>123.67</ele>
        <time>2021-07-22T18:47:46Z</time>
      </trkpt>
      <trkpt lat="49.30524" lon="6.16083">
        <ele>123.67</ele>
        <time>2021-07-22T18:47:47Z</time>
      </trkpt>
      <trkpt lat="49.30519" lon="6.16085">
        <ele>123.67</ele>
        <time>2021-07-22T18:47:48Z</time>
      </trkpt>
      <trkpt lat="49.30429" lon="6.16118">
        <ele>123.67</ele>
        <time>2021-07-22T18:48:00Z</time>
      </trkpt>
      <trkpt lat="49.30332" lon="6.16155">
        <ele>128.47</ele>
        <time>2021-07-22T18:48:13Z</time>
      </trkpt>
      <trkpt lat="49.30247" lon="6.16203">
        <ele>126.55</ele>
        <time>2021-07-22T18:48:25Z</time>
      </trkpt>
      <trkpt lat="49.30191" lon="6.1624">
        <ele>128.47</ele>
        <time>2021-07-22T18:48:38Z</time>
      </trkpt>
      <trkpt lat="49.30169" lon="6.16256">
        <ele>128.95</ele>
        <time>2021-07-22T18:48:46Z</time>
      </trkpt>
      <trkpt lat="49.30156" lon="6.1626">
        <ele>129.43</ele>
        <time>2021-07-22T18:49:41Z</time>
      </trkpt>
      <trkpt lat="49.30152" lon="6.16261">
        <ele>129.43</ele>
        <time>2021-07-22T18:49:42Z</time>
      </trkpt>
      <trkpt lat="49.30148" lon="6.16263">
        <ele>129.43</ele>
        <time>2021-07-22T18:49:43Z</time>
      </trkpt>
      <trkpt lat="49.30143" lon="6.16264">
        <ele>129.43</ele>
        <time>2021-07-22T18:49:44Z</time>
      </trkpt>
      <trkpt lat="49.3014" lon="6.16263">
        <ele>129.43</ele>
        <time>2021-07-22T18:49:45Z</time>
      </trkpt>
      <trkpt lat="49.30135" lon="6.1626">
        <ele>129.43</ele>
        <time>2021-07-22T18:49:46Z</time>
      </trkpt>
      <trkpt lat="49.30129" lon="6.16258">
        <ele>129.43</ele>
        <time>2021-07-22T18:49:47Z</time>
      </trkpt>
      <trkpt lat="49.30123" lon="6.16255">
        <ele>129.92</ele>
        <time>2021-07-22T18:49:48Z</time>
      </trkpt>
      <trkpt lat="49.30117" lon="6.16252">
        <ele>129.92</ele>
        <time>2021-07-22T18:49:49Z</time>
      </trkpt>
      <trkpt lat="49.30111" lon="6.16253">
        <ele>130.4</ele>
        <time>2021-07-22T18:49:50Z</time>
      </trkpt>
      <trkpt lat="49.30105" lon="6.16256">
        <ele>130.4</ele>
        <time>2021-07-22T18:49:51Z</time>
      </trkpt>
      <trkpt lat="49.30092" lon="6.1626">
        <ele>130.4</ele>
        <time>2021-07-22T18:49:52Z</time>
      </trkpt>
      <trkpt lat="49.29993" lon="6.16319">
        <ele>131.84</ele>
        <time>2021-07-22T18:50:05Z</time>
      </trkpt>
      <trkpt lat="49.29836" lon="6.16418">
        <ele>135.2</ele>
        <time>2021-07-22T18:50:21Z</time>
      </trkpt>
      <trkpt lat="49.29776" lon="6.16456">
        <ele>135.2</ele>
        <time>2021-07-22T18:50:29Z</time>
      </trkpt>
      <trkpt lat="49.29744" lon="6.16475">
        <ele>138.57</ele>
        <time>2021-07-22T18:50:37Z</time>
      </trkpt>
      <trkpt lat="49.29722" lon="6.16456">
        <ele>139.53</ele>
        <time>2021-07-22T18:50:55Z</time>
      </trkpt>
      <trkpt lat="49.29719" lon="6.16454">
        <ele>139.53</ele>
        <time>2021-07-22T18:50:56Z</time>
      </trkpt>
      <trkpt lat="49.29713" lon="6.16456">
        <ele>139.53</ele>
        <time>2021-07-22T18:50:57Z</time>
      </trkpt>
      <trkpt lat="49.29707" lon="6.16459">
        <ele>139.53</ele>
        <time>2021-07-22T18:50:58Z</time>
      </trkpt>
      <trkpt lat="49.29701" lon="6.16462">
        <ele>139.53</ele>
        <time>2021-07-22T18:50:59Z</time>
      </trkpt>
      <trkpt lat="49.297" lon="6.16468">
        <ele>139.53</ele>
        <time>2021-07-22T18:51:00Z</time>
      </trkpt>
      <trkpt lat="49.29698" lon="6.16479">
        <ele>140.01</ele>
        <time>2021-07-22T18:51:01Z</time>
      </trkpt>
      <trkpt lat="49.29696" lon="6.16488">
        <ele>140.01</ele>
        <time>2021-07-22T18:51:02Z</time>
      </trkpt>
      <trkpt lat="49.29691" lon="6.16512">
        <ele>140.49</ele>
        <time>2021-07-22T18:51:03Z</time>
      </trkpt>
      <trkpt lat="49.29684" lon="6.16519">
        <ele>140.49</ele>
        <time>2021-07-22T18:51:04Z</time>
      </trkpt>
      <trkpt lat="49.29676" lon="6.16526">
        <ele>140.49</ele>
        <time>2021-07-22T18:51:05Z</time>
      </trkpt>
      <trkpt lat="49.29668" lon="6.16532">
        <ele>140.49</ele>
        <time>2021-07-22T18:51:06Z</time>
      </trkpt>
      <trkpt lat="49.29569" lon="6.16615">
        <ele>143.37</ele>
        <time>2021-07-22T18:51:15Z</time>
      </trkpt>
      <trkpt lat="49.29445" lon="6.16691">
        <ele>149.62</ele>
        <time>2021-07-22T18:51:27Z</time>
      </trkpt>
      <trkpt lat="49.29242" lon="6.16752">
        <ele>148.66</ele>
        <time>2021-07-22T18:51:41Z</time>
      </trkpt>
      <trkpt lat="49.29" lon="6.16821">
        <ele>147.22</ele>
        <time>2021-07-22T18:51:55Z</time>
      </trkpt>
      <trkpt lat="49.28776" lon="6.1691">
        <ele>146.26</ele>
        <time>2021-07-22T18:52:07Z</time>
      </trkpt>
      <trkpt lat="49.28569" lon="6.16982">
        <ele>149.62</ele>
        <time>2021-07-22T18:52:19Z</time>
      </trkpt>
      <trkpt lat="49.28492" lon="6.16972">
        <ele>149.14</ele>
        <time>2021-07-22T18:52:26Z</time>
      </trkpt>
      <trkpt lat="49.28442" lon="6.16963">
        <ele>149.62</ele>
        <time>2021-07-22T18:52:34Z</time>
      </trkpt>
      <trkpt lat="49.28417" lon="6.16956">
        <ele>149.62</ele>
        <time>2021-07-22T18:52:44Z</time>
      </trkpt>
      <trkpt lat="49.28408" lon="6.16953">
        <ele>150.1</ele>
        <time>2021-07-22T18:52:47Z</time>
      </trkpt>
      <trkpt lat="49.28404" lon="6.16951">
        <ele>150.58</ele>
        <time>2021-07-22T18:52:48Z</time>
      </trkpt>
      <trkpt lat="49.284" lon="6.1695">
        <ele>150.58</ele>
        <time>2021-07-22T18:52:49Z</time>
      </trkpt>
      <trkpt lat="49.28398" lon="6.16935">
        <ele>151.06</ele>
        <time>2021-07-22T18:52:50Z</time>
      </trkpt>
      <trkpt lat="49.28396" lon="6.16928">
        <ele>151.06</ele>
        <time>2021-07-22T18:52:51Z</time>
      </trkpt>
      <trkpt lat="49.28393" lon="6.16922">
        <ele>151.54</ele>
        <time>2021-07-22T18:52:52Z</time>
      </trkpt>
      <trkpt lat="49.28385" lon="6.16918">
        <ele>151.54</ele>
        <time>2021-07-22T18:52:53Z</time>
      </trkpt>
      <trkpt lat="49.2838" lon="6.1692">
        <ele>151.54</ele>
        <time>2021-07-22T18:52:54Z</time>
      </trkpt>
      <trkpt lat="49.28375" lon="6.16921">
        <ele>151.54</ele>
        <time>2021-07-22T18:52:55Z</time>
      </trkpt>
      <trkpt lat="49.28372" lon="6.1693">
        <ele>151.54</ele>
        <time>2021-07-22T18:52:56Z</time>
      </trkpt>
      <trkpt lat="49.28364" lon="6.1694">
        <ele>152.03</ele>
        <time>2021-07-22T18:52:57Z</time>
      </trkpt>
      <trkpt lat="49.28357" lon="6.1694">
        <ele>152.03</ele>
        <time>2021-07-22T18:52:58Z</time>
      </trkpt>
      <trkpt lat="49.2835" lon="6.1694">
        <ele>152.03</ele>
        <time>2021-07-22T18:52:59Z</time>
      </trkpt>
      <trkpt lat="49.28342" lon="6.1694">
        <ele>152.51</ele>
        <time>2021-07-22T18:53:00Z</time>
      </trkpt>
      <trkpt lat="49.28333" lon="6.16939">
        <ele>152.51</ele>
        <time>2021-07-22T18:53:01Z</time>
      </trkpt>
      <trkpt lat="49.28208" lon="6.16913">
        <ele>152.99</ele>
        <time>2021-07-22T18:53:15Z</time>
      </trkpt>
      <trkpt lat="49.28048" lon="6.16891">
        <ele>150.1</ele>
        <time>2021-07-22T18:53:30Z</time>
      </trkpt>
      <trkpt lat="49.27957" lon="6.16912">
        <ele>150.58</ele>
        <time>2021-07-22T18:53:39Z</time>
      </trkpt>
      <trkpt lat="49.27879" lon="6.16952">
        <ele>151.54</ele>
        <time>2021-07-22T18:53:50Z</time>
      </trkpt>
      <trkpt lat="49.277" lon="6.17053">
        <ele>151.54</ele>
        <time>2021-07-22T18:54:08Z</time>
      </trkpt>
      <trkpt lat="49.27586" lon="6.17056">
        <ele>152.51</ele>
        <time>2021-07-22T18:54:17Z</time>
      </trkpt>
      <trkpt lat="49.27445" lon="6.17049">
        <ele>153.95</ele>
        <time>2021-07-22T18:54:31Z</time>
      </trkpt>
      <trkpt lat="49.27225" lon="6.17041">
        <ele>153.95</ele>
        <time>2021-07-22T18:54:48Z</time>
      </trkpt>
      <trkpt lat="49.27041" lon="6.17032">
        <ele>155.39</ele>
        <time>2021-07-22T18:55:02Z</time>
      </trkpt>
      <trkpt lat="49.26889" lon="6.17026">
        <ele>154.43</ele>
        <time>2021-07-22T18:55:15Z</time>
      </trkpt>
      <trkpt lat="49.26751" lon="6.17018">
        <ele>155.39</ele>
        <time>2021-07-22T18:55:27Z</time>
      </trkpt>
      <trkpt lat="49.2658" lon="6.1701">
        <ele>155.39</ele>
        <time>2021-07-22T18:55:41Z</time>
      </trkpt>
      <trkpt lat="49.26403" lon="6.17">
        <ele>157.31</ele>
        <time>2021-07-22T18:55:58Z</time>
      </trkpt>
      <trkpt lat="49.26338" lon="6.16998">
        <ele>157.31</ele>
        <time>2021-07-22T18:56:05Z</time>
      </trkpt>
      <trkpt lat="49.2633" lon="6.16998">
        <ele>156.83</ele>
        <time>2021-07-22T18:56:16Z</time>
      </trkpt>
      <trkpt lat="49.26307" lon="6.16998">
        <ele>156.83</ele>
        <time>2021-07-22T18:57:17Z</time>
      </trkpt>
      <trkpt lat="49.26227" lon="6.16996">
        <ele>157.31</ele>
        <time>2021-07-22T18:57:27Z</time>
      </trkpt>
      <trkpt lat="49.2621" lon="6.16995">
        <ele>156.83</ele>
        <time>2021-07-22T18:57:30Z</time>
      </trkpt>
      <trkpt lat="49.26205" lon="6.16995">
        <ele>156.83</ele>
        <time>2021-07-22T18:57:31Z</time>
      </trkpt>
      <trkpt lat="49.26201" lon="6.16995">
        <ele>156.83</ele>
        <time>2021-07-22T18:57:32Z</time>
      </trkpt>
      <trkpt lat="49.26198" lon="6.16995">
        <ele>156.83</ele>
        <time>2021-07-22T18:57:33Z</time>
      </trkpt>
      <trkpt lat="49.26189" lon="6.16979">
        <ele>156.83</ele>
        <time>2021-07-22T18:57:34Z</time>
      </trkpt>
      <trkpt lat="49.26189" lon="6.16973">
        <ele>156.83</ele>
        <time>2021-07-22T18:57:35Z</time>
      </trkpt>
      <trkpt lat="49.26188" lon="6.16967">
        <ele>156.83</ele>
        <time>2021-07-22T18:57:36Z</time>
      </trkpt>
      <trkpt lat="49.26187" lon="6.16955">
        <ele>156.83</ele>
        <time>2021-07-22T18:57:37Z</time>
      </trkpt>
      <trkpt lat="49.26187" lon="6.1695">
        <ele>156.83</ele>
        <time>2021-07-22T18:57:45Z</time>
      </trkpt>
      <trkpt lat="49.26183" lon="6.16908">
        <ele>156.83</ele>
        <time>2021-07-22T18:57:54Z</time>
      </trkpt>
      <trkpt lat="49.26171" lon="6.16765">
        <ele>159.24</ele>
        <time>2021-07-22T18:58:05Z</time>
      </trkpt>
      <trkpt lat="49.26156" lon="6.16577">
        <ele>162.6</ele>
        <time>2021-07-22T18:58:18Z</time>
      </trkpt>
      <trkpt lat="49.2613" lon="6.16384">
        <ele>160.68</ele>
        <time>2021-07-22T18:58:31Z</time>
      </trkpt>
      <trkpt lat="49.26083" lon="6.16203">
        <ele>162.12</ele>
        <time>2021-07-22T18:58:43Z</time>
      </trkpt>
      <trkpt lat="49.26013" lon="6.16066">
        <ele>159.24</ele>
        <time>2021-07-22T18:58:54Z</time>
      </trkpt>
      <trkpt lat="49.25964" lon="6.15973">
        <ele>157.79</ele>
        <time>2021-07-22T18:59:02Z</time>
      </trkpt>
      <trkpt lat="49.25945" lon="6.15948">
        <ele>157.79</ele>
        <time>2021-07-22T18:59:08Z</time>
      </trkpt>
      <trkpt lat="49.2594" lon="6.15943">
        <ele>158.27</ele>
        <time>2021-07-22T18:59:09Z</time>
      </trkpt>
      <trkpt lat="49.25935" lon="6.15938">
        <ele>158.27</ele>
        <time>2021-07-22T18:59:10Z</time>
      </trkpt>
      <trkpt lat="49.25934" lon="6.15925">
        <ele>158.27</ele>
        <time>2021-07-22T18:59:11Z</time>
      </trkpt>
      <trkpt lat="49.25931" lon="6.15907">
        <ele>158.27</ele>
        <time>2021-07-22T18:59:12Z</time>
      </trkpt>
      <trkpt lat="49.25931" lon="6.15907">
        <ele>158.27</ele>
        <time>2021-07-22T18:59:13Z</time>
      </trkpt>
      <trkpt lat="49.25929" lon="6.15902">
        <ele>158.27</ele>
        <time>2021-07-22T18:59:14Z</time>
      </trkpt>
      <trkpt lat="49.25931" lon="6.15895">
        <ele>158.27</ele>
        <time>2021-07-22T18:59:15Z</time>
      </trkpt>
      <trkpt lat="49.25934" lon="6.1589">
        <ele>158.27</ele>
        <time>2021-07-22T18:59:16Z</time>
      </trkpt>
      <trkpt lat="49.25936" lon="6.15884">
        <ele>158.27</ele>
        <time>2021-07-22T18:59:17Z</time>
      </trkpt>
      <trkpt lat="49.25939" lon="6.15878">
        <ele>158.27</ele>
        <time>2021-07-22T18:59:18Z</time>
      </trkpt>
      <trkpt lat="49.25944" lon="6.15874">
        <ele>157.79</ele>
        <time>2021-07-22T18:59:19Z</time>
      </trkpt>
      <trkpt lat="49.25949" lon="6.15868">
        <ele>157.79</ele>
        <time>2021-07-22T18:59:20Z</time>
      </trkpt>
      <trkpt lat="49.26035" lon="6.15792">
        <ele>155.87</ele>
        <time>2021-07-22T18:59:33Z</time>
      </trkpt>
      <trkpt lat="49.26165" lon="6.15693">
        <ele>152.51</ele>
        <time>2021-07-22T18:59:46Z</time>
      </trkpt>
      <trkpt lat="49.26218" lon="6.15652">
        <ele>150.1</ele>
        <time>2021-07-22T18:59:54Z</time>
      </trkpt>
      <trkpt lat="49.26224" lon="6.15644">
        <ele>149.62</ele>
        <time>2021-07-22T18:59:55Z</time>
      </trkpt>
      <trkpt lat="49.26237" lon="6.15628">
        <ele>149.62</ele>
        <time>2021-07-22T18:59:56Z</time>
      </trkpt>
      <trkpt lat="49.26237" lon="6.15628">
        <ele>149.62</ele>
        <time>2021-07-22T18:59:57Z</time>
      </trkpt>
      <trkpt lat="49.26239" lon="6.15618">
        <ele>149.14</ele>
        <time>2021-07-22T18:59:58Z</time>
      </trkpt>
      <trkpt lat="49.26242" lon="6.15607">
        <ele>150.58</ele>
        <time>2021-07-22T18:59:59Z</time>
      </trkpt>
      <trkpt lat="49.26244" lon="6.15598">
        <ele>150.58</ele>
        <time>2021-07-22T19:00:00Z</time>
      </trkpt>
      <trkpt lat="49.2625" lon="6.15571">
        <ele>152.03</ele>
        <time>2021-07-22T19:00:08Z</time>
      </trkpt>
      <trkpt lat="49.26263" lon="6.15503">
        <ele>153.47</ele>
        <time>2021-07-22T19:00:16Z</time>
      </trkpt>
      <trkpt lat="49.26289" lon="6.15315">
        <ele>154.91</ele>
        <time>2021-07-22T19:00:28Z</time>
      </trkpt>
      <trkpt lat="49.26287" lon="6.15235">
        <ele>154.91</ele>
        <time>2021-07-22T19:00:35Z</time>
      </trkpt>
      <trkpt lat="49.2628" lon="6.15191">
        <ele>154.91</ele>
        <time>2021-07-22T19:00:39Z</time>
      </trkpt>
      <trkpt lat="49.26278" lon="6.15178">
        <ele>154.43</ele>
        <time>2021-07-22T19:00:40Z</time>
      </trkpt>
      <trkpt lat="49.26261" lon="6.15001">
        <ele>154.43</ele>
        <time>2021-07-22T19:00:50Z</time>
      </trkpt>
      <trkpt lat="49.26236" lon="6.14822">
        <ele>155.39</ele>
        <time>2021-07-22T19:01:02Z</time>
      </trkpt>
      <trkpt lat="49.26226" lon="6.14741">
        <ele>155.39</ele>
        <time>2021-07-22T19:01:13Z</time>
      </trkpt>
      <trkpt lat="49.26204" lon="6.14579">
        <ele>155.39</ele>
        <time>2021-07-22T19:01:24Z</time>
      </trkpt>
      <trkpt lat="49.26192" lon="6.14488">
        <ele>155.87</ele>
        <time>2021-07-22T19:01:32Z</time>
      </trkpt>
      <trkpt lat="49.26182" lon="6.14415">
        <ele>155.39</ele>
        <time>2021-07-22T19:01:42Z</time>
      </trkpt>
      <trkpt lat="49.26158" lon="6.14243">
        <ele>154.91</ele>
        <time>2021-07-22T19:01:55Z</time>
      </trkpt>
      <trkpt lat="49.26156" lon="6.14224">
        <ele>155.39</ele>
        <time>2021-07-22T19:02:01Z</time>
      </trkpt>
      <trkpt lat="49.26156" lon="6.14224">
        <ele>155.87</ele>
        <time>2021-07-22T19:02:02Z</time>
      </trkpt>
      <trkpt lat="49.26151" lon="6.14224">
        <ele>155.87</ele>
        <time>2021-07-22T19:02:03Z</time>
      </trkpt>
      <trkpt lat="49.26147" lon="6.14225">
        <ele>156.35</ele>
        <time>2021-07-22T19:02:04Z</time>
      </trkpt>
      <trkpt lat="49.26138" lon="6.14226">
        <ele>156.35</ele>
        <time>2021-07-22T19:02:05Z</time>
      </trkpt>
      <trkpt lat="49.26138" lon="6.14226">
        <ele>156.83</ele>
        <time>2021-07-22T19:02:06Z</time>
      </trkpt>
      <trkpt lat="49.26081" lon="6.14232">
        <ele>157.31</ele>
        <time>2021-07-22T19:02:15Z</time>
      </trkpt>
      <trkpt lat="49.26029" lon="6.14236">
        <ele>157.79</ele>
        <time>2021-07-22T19:02:25Z</time>
      </trkpt>
      <trkpt lat="49.25979" lon="6.14241">
        <ele>158.27</ele>
        <time>2021-07-22T19:02:35Z</time>
      </trkpt>
      <trkpt lat="49.25937" lon="6.14246">
        <ele>158.27</ele>
        <time>2021-07-22T19:02:43Z</time>
      </trkpt>
      <trkpt lat="49.25848" lon="6.14257">
        <ele>159.24</ele>
        <time>2021-07-22T19:02:55Z</time>
      </trkpt>
      <trkpt lat="49.25742" lon="6.14269">
        <ele>158.75</ele>
        <time>2021-07-22T19:03:07Z</time>
      </trkpt>
      <trkpt lat="49.25688" lon="6.14274">
        <ele>158.75</ele>
        <time>2021-07-22T19:03:16Z</time>
      </trkpt>
      <trkpt lat="49.25589" lon="6.14284">
        <ele>158.75</ele>
        <time>2021-07-22T19:03:28Z</time>
      </trkpt>
      <trkpt lat="49.25535" lon="6.14289">
        <ele>158.75</ele>
        <time>2021-07-22T19:03:36Z</time>
      </trkpt>
      <trkpt lat="49.2547" lon="6.14296">
        <ele>158.75</ele>
        <time>2021-07-22T19:03:45Z</time>
      </trkpt>
      <trkpt lat="49.2547" lon="6.14296">
        <ele>158.75</ele>
        <time>2021-07-22T19:03:58Z</time>
      </trkpt>
      <trkpt lat="49.25463" lon="6.14297">
        <ele>158.75</ele>
        <time>2021-07-22T19:04:10Z</time>
      </trkpt>
      <trkpt lat="49.25444" lon="6.14281">
        <ele>158.75</ele>
        <time>2021-07-22T19:04:11Z</time>
      </trkpt>
      <trkpt lat="49.25444" lon="6.14281">
        <ele>158.75</ele>
        <time>2021-07-22T19:04:12Z</time>
      </trkpt>
      <trkpt lat="49.25444" lon="6.14275">
        <ele>158.75</ele>
        <time>2021-07-22T19:04:13Z</time>
      </trkpt>
      <trkpt lat="49.25446" lon="6.14266">
        <ele>158.75</ele>
        <time>2021-07-22T19:04:14Z</time>
      </trkpt>
      <trkpt lat="49.25447" lon="6.14241">
        <ele>158.75</ele>
        <time>2021-07-22T19:04:15Z</time>
      </trkpt>
      <trkpt lat="49.25459" lon="6.14071">
        <ele>159.24</ele>
        <time>2021-07-22T19:04:25Z</time>
      </trkpt>
      <trkpt lat="49.25485" lon="6.13701">
        <ele>159.24</ele>
        <time>2021-07-22T19:04:43Z</time>
      </trkpt>
      <trkpt lat="49.25481" lon="6.13597">
        <ele>160.2</ele>
        <time>2021-07-22T19:04:50Z</time>
      </trkpt>
      <trkpt lat="49.25487" lon="6.1358">
        <ele>160.2</ele>
        <time>2021-07-22T19:04:51Z</time>
      </trkpt>
      <trkpt lat="49.25496" lon="6.13559">
        <ele>160.68</ele>
        <time>2021-07-22T19:04:53Z</time>
      </trkpt>
      <trkpt lat="49.25497" lon="6.13545">
        <ele>160.68</ele>
        <time>2021-07-22T19:04:54Z</time>
      </trkpt>
      <trkpt lat="49.25497" lon="6.13533">
        <ele>160.68</ele>
        <time>2021-07-22T19:04:55Z</time>
      </trkpt>
      <trkpt lat="49.25493" lon="6.13521">
        <ele>160.68</ele>
        <time>2021-07-22T19:04:56Z</time>
      </trkpt>
      <trkpt lat="49.25488" lon="6.13511">
        <ele>160.68</ele>
        <time>2021-07-22T19:04:57Z</time>
      </trkpt>
      <trkpt lat="49.25483" lon="6.13503">
        <ele>161.16</ele>
        <time>2021-07-22T19:04:58Z</time>
      </trkpt>
      <trkpt lat="49.25476" lon="6.13494">
        <ele>161.16</ele>
        <time>2021-07-22T19:04:59Z</time>
      </trkpt>
      <trkpt lat="49.25468" lon="6.13493">
        <ele>161.16</ele>
        <time>2021-07-22T19:05:00Z</time>
      </trkpt>
      <trkpt lat="49.25459" lon="6.13492">
        <ele>161.16</ele>
        <time>2021-07-22T19:05:01Z</time>
      </trkpt>
      <trkpt lat="49.25452" lon="6.13495">
        <ele>160.68</ele>
        <time>2021-07-22T19:05:02Z</time>
      </trkpt>
      <trkpt lat="49.25443" lon="6.13501">
        <ele>160.2</ele>
        <time>2021-07-22T19:05:03Z</time>
      </trkpt>
      <trkpt lat="49.25441" lon="6.13503">
        <ele>159.24</ele>
        <time>2021-07-22T19:05:04Z</time>
      </trkpt>
      <trkpt lat="49.25423" lon="6.13519">
        <ele>158.75</ele>
        <time>2021-07-22T19:05:05Z</time>
      </trkpt>
      <trkpt lat="49.25414" lon="6.13514">
        <ele>159.24</ele>
        <time>2021-07-22T19:05:06Z</time>
      </trkpt>
      <trkpt lat="49.25403" lon="6.1351">
        <ele>159.72</ele>
        <time>2021-07-22T19:05:07Z</time>
      </trkpt>
      <trkpt lat="49.25392" lon="6.13507">
        <ele>159.72</ele>
        <time>2021-07-22T19:05:08Z</time>
      </trkpt>
      <trkpt lat="49.25379" lon="6.13511">
        <ele>159.72</ele>
        <time>2021-07-22T19:05:09Z</time>
      </trkpt>
      <trkpt lat="49.25365" lon="6.13515">
        <ele>159.24</ele>
        <time>2021-07-22T19:05:10Z</time>
      </trkpt>
      <trkpt lat="49.25349" lon="6.13519">
        <ele>158.75</ele>
        <time>2021-07-22T19:05:11Z</time>
      </trkpt>
      <trkpt lat="49.25319" lon="6.13532">
        <ele>158.75</ele>
        <time>2021-07-22T19:05:12Z</time>
      </trkpt>
      <trkpt lat="49.252" lon="6.13575">
        <ele>160.2</ele>
        <time>2021-07-22T19:05:20Z</time>
      </trkpt>
      <trkpt lat="49.25131" lon="6.13598">
        <ele>162.12</ele>
        <time>2021-07-22T19:05:24Z</time>
      </trkpt>
      <trkpt lat="49.25096" lon="6.13619">
        <ele>162.12</ele>
        <time>2021-07-22T19:05:25Z</time>
      </trkpt>
      <trkpt lat="49.25096" lon="6.13619">
        <ele>162.6</ele>
        <time>2021-07-22T19:05:26Z</time>
      </trkpt>
      <trkpt lat="49.25079" lon="6.13635">
        <ele>163.56</ele>
        <time>2021-07-22T19:05:27Z</time>
      </trkpt>
      <trkpt lat="49.25064" lon="6.13651">
        <ele>163.56</ele>
        <time>2021-07-22T19:05:28Z</time>
      </trkpt>
      <trkpt lat="49.2505" lon="6.13671">
        <ele>163.56</ele>
        <time>2021-07-22T19:05:29Z</time>
      </trkpt>
      <trkpt lat="49.25036" lon="6.13692">
        <ele>164.52</ele>
        <time>2021-07-22T19:05:30Z</time>
      </trkpt>
      <trkpt lat="49.25026" lon="6.13715">
        <ele>165</ele>
        <time>2021-07-22T19:05:31Z</time>
      </trkpt>
      <trkpt lat="49.25016" lon="6.1374">
        <ele>165.48</ele>
        <time>2021-07-22T19:05:32Z</time>
      </trkpt>
      <trkpt lat="49.25006" lon="6.13764">
        <ele>165.96</ele>
        <time>2021-07-22T19:05:33Z</time>
      </trkpt>
      <trkpt lat="49.24998" lon="6.13789">
        <ele>166.93</ele>
        <time>2021-07-22T19:05:34Z</time>
      </trkpt>
      <trkpt lat="49.24993" lon="6.13817">
        <ele>167.89</ele>
        <time>2021-07-22T19:05:35Z</time>
      </trkpt>
      <trkpt lat="49.24988" lon="6.13843">
        <ele>168.37</ele>
        <time>2021-07-22T19:05:36Z</time>
      </trkpt>
      <trkpt lat="49.24985" lon="6.1387">
        <ele>169.33</ele>
        <time>2021-07-22T19:05:37Z</time>
      </trkpt>
      <trkpt lat="49.24983" lon="6.13897">
        <ele>168.37</ele>
        <time>2021-07-22T19:05:38Z</time>
      </trkpt>
      <trkpt lat="49.24983" lon="6.14221">
        <ele>183.27</ele>
        <time>2021-07-22T19:05:51Z</time>
      </trkpt>
      <trkpt lat="49.24991" lon="6.14301">
        <ele>186.15</ele>
        <time>2021-07-22T19:05:55Z</time>
      </trkpt>
      <trkpt lat="49.24988" lon="6.14312">
        <ele>189.04</ele>
        <time>2021-07-22T19:05:56Z</time>
      </trkpt>
      <trkpt lat="49.24985" lon="6.14323">
        <ele>190</ele>
        <time>2021-07-22T19:05:57Z</time>
      </trkpt>
      <trkpt lat="49.24982" lon="6.14333">
        <ele>190.48</ele>
        <time>2021-07-22T19:05:58Z</time>
      </trkpt>
      <trkpt lat="49.24974" lon="6.14343">
        <ele>190.96</ele>
        <time>2021-07-22T19:05:59Z</time>
      </trkpt>
      <trkpt lat="49.24974" lon="6.14343">
        <ele>190.96</ele>
        <time>2021-07-22T19:06:00Z</time>
      </trkpt>
      <trkpt lat="49.24961" lon="6.14348">
        <ele>190.96</ele>
        <time>2021-07-22T19:06:01Z</time>
      </trkpt>
      <trkpt lat="49.24956" lon="6.14345">
        <ele>190</ele>
        <time>2021-07-22T19:06:02Z</time>
      </trkpt>
      <trkpt lat="49.24956" lon="6.14345">
        <ele>189.52</ele>
        <time>2021-07-22T19:06:03Z</time>
      </trkpt>
      <trkpt lat="49.24948" lon="6.14341">
        <ele>189.04</ele>
        <time>2021-07-22T19:06:04Z</time>
      </trkpt>
      <trkpt lat="49.24937" lon="6.14327">
        <ele>189.04</ele>
        <time>2021-07-22T19:06:05Z</time>
      </trkpt>
      <trkpt lat="49.24937" lon="6.14327">
        <ele>189.52</ele>
        <time>2021-07-22T19:06:06Z</time>
      </trkpt>
      <trkpt lat="49.24934" lon="6.14315">
        <ele>189.52</ele>
        <time>2021-07-22T19:06:07Z</time>
      </trkpt>
      <trkpt lat="49.24931" lon="6.14303">
        <ele>190.48</ele>
        <time>2021-07-22T19:06:08Z</time>
      </trkpt>
      <trkpt lat="49.24929" lon="6.1429">
        <ele>190.96</ele>
        <time>2021-07-22T19:06:09Z</time>
      </trkpt>
      <trkpt lat="49.24927" lon="6.14277">
        <ele>191.44</ele>
        <time>2021-07-22T19:06:10Z</time>
      </trkpt>
      <trkpt lat="49.24925" lon="6.14264">
        <ele>191.92</ele>
        <time>2021-07-22T19:06:11Z</time>
      </trkpt>
      <trkpt lat="49.24923" lon="6.14252">
        <ele>192.88</ele>
        <time>2021-07-22T19:06:12Z</time>
      </trkpt>
      <trkpt lat="49.24921" lon="6.14239">
        <ele>193.36</ele>
        <time>2021-07-22T19:06:13Z</time>
      </trkpt>
      <trkpt lat="49.24916" lon="6.14226">
        <ele>193.84</ele>
        <time>2021-07-22T19:06:14Z</time>
      </trkpt>
      <trkpt lat="49.24844" lon="6.14061">
        <ele>196.25</ele>
        <time>2021-07-22T19:06:25Z</time>
      </trkpt>
      <trkpt lat="49.24777" lon="6.1391">
        <ele>197.69</ele>
        <time>2021-07-22T19:06:35Z</time>
      </trkpt>
      <trkpt lat="49.24759" lon="6.1387">
        <ele>198.65</ele>
        <time>2021-07-22T19:06:42Z</time>
      </trkpt>
      <trkpt lat="49.2476" lon="6.13836">
        <ele>199.61</ele>
        <time>2021-07-22T19:06:50Z</time>
      </trkpt>
      <trkpt lat="49.24764" lon="6.13815">
        <ele>200.09</ele>
        <time>2021-07-22T19:06:54Z</time>
      </trkpt>
      <trkpt lat="49.24765" lon="6.13806">
        <ele>200.09</ele>
        <time>2021-07-22T19:06:55Z</time>
      </trkpt>
      <trkpt lat="49.24763" lon="6.13797">
        <ele>200.09</ele>
        <time>2021-07-22T19:06:56Z</time>
      </trkpt>
      <trkpt lat="49.24761" lon="6.13788">
        <ele>200.09</ele>
        <time>2021-07-22T19:06:57Z</time>
      </trkpt>
      <trkpt lat="49.24757" lon="6.13779">
        <ele>200.09</ele>
        <time>2021-07-22T19:06:58Z</time>
      </trkpt>
      <trkpt lat="49.2473" lon="6.13712">
        <ele>201.05</ele>
        <time>2021-07-22T19:07:04Z</time>
      </trkpt>
      <trkpt lat="49.2473" lon="6.13712">
        <ele>201.05</ele>
        <time>2021-07-22T19:07:05Z</time>
      </trkpt>
      <trkpt lat="49.24728" lon="6.13701">
        <ele>201.05</ele>
        <time>2021-07-22T19:07:06Z</time>
      </trkpt>
      <trkpt lat="49.24726" lon="6.13691">
        <ele>201.53</ele>
        <time>2021-07-22T19:07:07Z</time>
      </trkpt>
      <trkpt lat="49.24726" lon="6.1367">
        <ele>201.53</ele>
        <time>2021-07-22T19:07:08Z</time>
      </trkpt>
      <trkpt lat="49.24726" lon="6.1367">
        <ele>201.53</ele>
        <time>2021-07-22T19:07:09Z</time>
      </trkpt>
      <trkpt lat="49.24728" lon="6.1366">
        <ele>201.53</ele>
        <time>2021-07-22T19:07:10Z</time>
      </trkpt>
      <trkpt lat="49.24747" lon="6.13525">
        <ele>201.53</ele>
        <time>2021-07-22T19:07:19Z</time>
      </trkpt>
      <trkpt lat="49.24749" lon="6.13508">
        <ele>201.53</ele>
        <time>2021-07-22T19:07:20Z</time>
      </trkpt>
      <trkpt lat="49.2475" lon="6.13491">
        <ele>201.53</ele>
        <time>2021-07-22T19:07:21Z</time>
      </trkpt>
      <trkpt lat="49.24747" lon="6.13458">
        <ele>201.53</ele>
        <time>2021-07-22T19:07:23Z</time>
      </trkpt>
      <trkpt lat="49.24746" lon="6.13451">
        <ele>201.53</ele>
        <time>2021-07-22T19:07:24Z</time>
      </trkpt>
      <trkpt lat="49.24745" lon="6.13446">
        <ele>201.53</ele>
        <time>2021-07-22T19:07:25Z</time>
      </trkpt>
      <trkpt lat="49.24744" lon="6.13439">
        <ele>201.53</ele>
        <time>2021-07-22T19:07:27Z</time>
      </trkpt>
      <trkpt lat="49.24739" lon="6.13422">
        <ele>202.01</ele>
        <time>2021-07-22T19:07:28Z</time>
      </trkpt>
      <trkpt lat="49.24739" lon="6.13422">
        <ele>202.01</ele>
        <time>2021-07-22T19:07:29Z</time>
      </trkpt>
      <trkpt lat="49.24736" lon="6.13412">
        <ele>201.53</ele>
        <time>2021-07-22T19:07:30Z</time>
      </trkpt>
      <trkpt lat="49.24731" lon="6.13403">
        <ele>201.53</ele>
        <time>2021-07-22T19:07:31Z</time>
      </trkpt>
      <trkpt lat="49.24683" lon="6.13295">
        <ele>201.05</ele>
        <time>2021-07-22T19:07:39Z</time>
      </trkpt>
      <trkpt lat="49.24654" lon="6.13217">
        <ele>201.53</ele>
        <time>2021-07-22T19:07:46Z</time>
      </trkpt>
      <trkpt lat="49.24651" lon="6.13209">
        <ele>202.49</ele>
        <time>2021-07-22T19:07:48Z</time>
      </trkpt>
      <trkpt lat="49.24647" lon="6.132">
        <ele>202.49</ele>
        <time>2021-07-22T19:07:49Z</time>
      </trkpt>
      <trkpt lat="49.24647" lon="6.132">
        <ele>202.01</ele>
        <time>2021-07-22T19:07:50Z</time>
      </trkpt>
      <trkpt lat="49.24642" lon="6.13191">
        <ele>202.01</ele>
        <time>2021-07-22T19:07:51Z</time>
      </trkpt>
      <trkpt lat="49.24642" lon="6.13191">
        <ele>202.49</ele>
        <time>2021-07-22T19:07:52Z</time>
      </trkpt>
      <trkpt lat="49.24639" lon="6.13187">
        <ele>202.49</ele>
        <time>2021-07-22T19:07:53Z</time>
      </trkpt>
      <trkpt lat="49.24637" lon="6.13183">
        <ele>202.98</ele>
        <time>2021-07-22T19:07:54Z</time>
      </trkpt>
      <trkpt lat="49.24635" lon="6.13182">
        <ele>203.46</ele>
        <time>2021-07-22T19:07:55Z</time>
      </trkpt>
      <trkpt lat="49.24631" lon="6.13179">
        <ele>203.94</ele>
        <time>2021-07-22T19:07:56Z</time>
      </trkpt>
      <trkpt lat="49.24617" lon="6.13168">
        <ele>204.42</ele>
        <time>2021-07-22T19:07:57Z</time>
      </trkpt>
      <trkpt lat="49.24566" lon="6.13195">
        <ele>208.74</ele>
        <time>2021-07-22T19:08:05Z</time>
      </trkpt>
      <trkpt lat="49.24545" lon="6.13191">
        <ele>210.67</ele>
        <time>2021-07-22T19:08:08Z</time>
      </trkpt>
      <trkpt lat="49.24539" lon="6.1319">
        <ele>210.67</ele>
        <time>2021-07-22T19:08:09Z</time>
      </trkpt>
      <trkpt lat="49.24534" lon="6.13188">
        <ele>211.15</ele>
        <time>2021-07-22T19:08:10Z</time>
      </trkpt>
      <trkpt lat="49.24531" lon="6.13186">
        <ele>211.63</ele>
        <time>2021-07-22T19:08:11Z</time>
      </trkpt>
      <trkpt lat="49.24529" lon="6.13182">
        <ele>211.63</ele>
        <time>2021-07-22T19:08:12Z</time>
      </trkpt>
      <trkpt lat="49.24526" lon="6.13176">
        <ele>212.11</ele>
        <time>2021-07-22T19:08:13Z</time>
      </trkpt>
      <trkpt lat="49.24523" lon="6.13171">
        <ele>212.11</ele>
        <time>2021-07-22T19:08:14Z</time>
      </trkpt>
      <trkpt lat="49.24519" lon="6.13163">
        <ele>212.59</ele>
        <time>2021-07-22T19:08:15Z</time>
      </trkpt>
      <trkpt lat="49.24515" lon="6.13155">
        <ele>212.59</ele>
        <time>2021-07-22T19:08:16Z</time>
      </trkpt>
      <trkpt lat="49.24489" lon="6.13097">
        <ele>214.03</ele>
        <time>2021-07-22T19:08:21Z</time>
      </trkpt>
      <trkpt lat="49.24484" lon="6.13084">
        <ele>214.51</ele>
        <time>2021-07-22T19:08:22Z</time>
      </trkpt>
      <trkpt lat="49.24479" lon="6.13072">
        <ele>214.99</ele>
        <time>2021-07-22T19:08:23Z</time>
      </trkpt>
      <trkpt lat="49.24468" lon="6.13054">
        <ele>214.99</ele>
        <time>2021-07-22T19:08:24Z</time>
      </trkpt>
      <trkpt lat="49.24462" lon="6.13047">
        <ele>214.99</ele>
        <time>2021-07-22T19:08:25Z</time>
      </trkpt>
      <trkpt lat="49.24418" lon="6.12971">
        <ele>212.59</ele>
        <time>2021-07-22T19:08:33Z</time>
      </trkpt>
      <trkpt lat="49.24398" lon="6.12923">
        <ele>213.07</ele>
        <time>2021-07-22T19:08:36Z</time>
      </trkpt>
      <trkpt lat="49.24389" lon="6.12848">
        <ele>215.95</ele>
        <time>2021-07-22T19:08:41Z</time>
      </trkpt>
      <trkpt lat="49.24388" lon="6.1284">
        <ele>216.43</ele>
        <time>2021-07-22T19:08:42Z</time>
      </trkpt>
      <trkpt lat="49.24388" lon="6.12836">
        <ele>216.91</ele>
        <time>2021-07-22T19:08:43Z</time>
      </trkpt>
      <trkpt lat="49.24396" lon="6.12822">
        <ele>216.91</ele>
        <time>2021-07-22T19:08:44Z</time>
      </trkpt>
      <trkpt lat="49.24396" lon="6.12822">
        <ele>216.91</ele>
        <time>2021-07-22T19:08:45Z</time>
      </trkpt>
      <trkpt lat="49.24405" lon="6.12804">
        <ele>215.95</ele>
        <time>2021-07-22T19:08:47Z</time>
      </trkpt>
      <trkpt lat="49.24421" lon="6.12767">
        <ele>220.76</ele>
        <time>2021-07-22T19:08:50Z</time>
      </trkpt>
      <trkpt lat="49.24426" lon="6.12754">
        <ele>221.24</ele>
        <time>2021-07-22T19:08:51Z</time>
      </trkpt>
      <trkpt lat="49.24432" lon="6.12743">
        <ele>222.2</ele>
        <time>2021-07-22T19:08:52Z</time>
      </trkpt>
      <trkpt lat="49.24449" lon="6.1272">
        <ele>223.16</ele>
        <time>2021-07-22T19:08:54Z</time>
      </trkpt>
      <trkpt lat="49.2445" lon="6.12713">
        <ele>224.12</ele>
        <time>2021-07-22T19:08:55Z</time>
      </trkpt>
      <trkpt lat="49.24448" lon="6.12712">
        <ele>225.09</ele>
        <time>2021-07-22T19:08:56Z</time>
      </trkpt>
      <trkpt lat="49.24448" lon="6.12712">
        <ele>226.05</ele>
        <time>2021-07-22T19:08:57Z</time>
      </trkpt>
      <trkpt lat="49.24444" lon="6.12709">
        <ele>227.01</ele>
        <time>2021-07-22T19:08:58Z</time>
      </trkpt>
      <trkpt lat="49.24438" lon="6.12709">
        <ele>227.97</ele>
        <time>2021-07-22T19:08:59Z</time>
      </trkpt>
      <trkpt lat="49.24386" lon="6.12711">
        <ele>233.74</ele>
        <time>2021-07-22T19:09:06Z</time>
      </trkpt>
      <trkpt lat="49.24379" lon="6.12711">
        <ele>234.7</ele>
        <time>2021-07-22T19:09:07Z</time>
      </trkpt>
      <trkpt lat="49.24372" lon="6.12711">
        <ele>235.18</ele>
        <time>2021-07-22T19:09:08Z</time>
      </trkpt>
      <trkpt lat="49.24368" lon="6.12703">
        <ele>235.66</ele>
        <time>2021-07-22T19:09:09Z</time>
      </trkpt>
      <trkpt lat="49.24365" lon="6.12694">
        <ele>236.62</ele>
        <time>2021-07-22T19:09:10Z</time>
      </trkpt>
      <trkpt lat="49.24363" lon="6.12685">
        <ele>237.58</ele>
        <time>2021-07-22T19:09:11Z</time>
      </trkpt>
      <trkpt lat="49.24363" lon="6.12675">
        <ele>238.54</ele>
        <time>2021-07-22T19:09:12Z</time>
      </trkpt>
      <trkpt lat="49.24365" lon="6.12641">
        <ele>241.43</ele>
        <time>2021-07-22T19:09:15Z</time>
      </trkpt>
      <trkpt lat="49.24366" lon="6.12629">
        <ele>242.39</ele>
        <time>2021-07-22T19:09:16Z</time>
      </trkpt>
      <trkpt lat="49.24369" lon="6.12621">
        <ele>243.35</ele>
        <time>2021-07-22T19:09:17Z</time>
      </trkpt>
      <trkpt lat="49.24374" lon="6.12613">
        <ele>244.31</ele>
        <time>2021-07-22T19:09:18Z</time>
      </trkpt>
      <trkpt lat="49.24379" lon="6.12606">
        <ele>244.79</ele>
        <time>2021-07-22T19:09:19Z</time>
      </trkpt>
      <trkpt lat="49.24384" lon="6.12598">
        <ele>245.27</ele>
        <time>2021-07-22T19:09:20Z</time>
      </trkpt>
      <trkpt lat="49.24452" lon="6.12508">
        <ele>245.27</ele>
        <time>2021-07-22T19:09:30Z</time>
      </trkpt>
      <trkpt lat="49.24471" lon="6.12496">
        <ele>246.72</ele>
        <time>2021-07-22T19:09:38Z</time>
      </trkpt>
      <trkpt lat="49.24488" lon="6.12497">
        <ele>246.72</ele>
        <time>2021-07-22T19:09:50Z</time>
      </trkpt>
      <trkpt lat="49.24492" lon="6.12499">
        <ele>246.23</ele>
        <time>2021-07-22T19:09:52Z</time>
      </trkpt>
      <trkpt lat="49.24497" lon="6.12501">
        <ele>245.75</ele>
        <time>2021-07-22T19:09:53Z</time>
      </trkpt>
      <trkpt lat="49.24501" lon="6.12503">
        <ele>244.31</ele>
        <time>2021-07-22T19:09:54Z</time>
      </trkpt>
      <trkpt lat="49.24506" lon="6.12505">
        <ele>243.35</ele>
        <time>2021-07-22T19:09:55Z</time>
      </trkpt>
      <trkpt lat="49.24511" lon="6.12508">
        <ele>242.39</ele>
        <time>2021-07-22T19:09:56Z</time>
      </trkpt>
      <trkpt lat="49.24529" lon="6.12516">
        <ele>239.99</ele>
        <time>2021-07-22T19:09:59Z</time>
      </trkpt>
      <trkpt lat="49.24535" lon="6.12519">
        <ele>239.51</ele>
        <time>2021-07-22T19:10:00Z</time>
      </trkpt>
      <trkpt lat="49.24541" lon="6.12522">
        <ele>238.54</ele>
        <time>2021-07-22T19:10:01Z</time>
      </trkpt>
      <trkpt lat="49.24545" lon="6.1252">
        <ele>237.58</ele>
        <time>2021-07-22T19:10:02Z</time>
      </trkpt>
      <trkpt lat="49.24553" lon="6.12508">
        <ele>236.62</ele>
        <time>2021-07-22T19:10:03Z</time>
      </trkpt>
      <trkpt lat="49.24553" lon="6.12508">
        <ele>237.58</ele>
        <time>2021-07-22T19:10:04Z</time>
      </trkpt>
      <trkpt lat="49.24554" lon="6.125">
        <ele>237.58</ele>
        <time>2021-07-22T19:10:05Z</time>
      </trkpt>
      <trkpt lat="49.24549" lon="6.12486">
        <ele>237.1</ele>
        <time>2021-07-22T19:10:06Z</time>
      </trkpt>
      <trkpt lat="49.24549" lon="6.12486">
        <ele>237.1</ele>
        <time>2021-07-22T19:10:07Z</time>
      </trkpt>
      <trkpt lat="49.24545" lon="6.12481">
        <ele>237.1</ele>
        <time>2021-07-22T19:10:08Z</time>
      </trkpt>
      <trkpt lat="49.2454" lon="6.12478">
        <ele>237.1</ele>
        <time>2021-07-22T19:10:09Z</time>
      </trkpt>
      <trkpt lat="49.24516" lon="6.12463">
        <ele>237.58</ele>
        <time>2021-07-22T19:10:13Z</time>
      </trkpt>
      <trkpt lat="49.24497" lon="6.12447">
        <ele>237.1</ele>
        <time>2021-07-22T19:10:16Z</time>
      </trkpt>
      <trkpt lat="49.24491" lon="6.12442">
        <ele>237.1</ele>
        <time>2021-07-22T19:10:17Z</time>
      </trkpt>
      <trkpt lat="49.24484" lon="6.12438">
        <ele>237.1</ele>
        <time>2021-07-22T19:10:18Z</time>
      </trkpt>
      <trkpt lat="49.24477" lon="6.12438">
        <ele>237.1</ele>
        <time>2021-07-22T19:10:19Z</time>
      </trkpt>
      <trkpt lat="49.2447" lon="6.12437">
        <ele>237.1</ele>
        <time>2021-07-22T19:10:20Z</time>
      </trkpt>
      <trkpt lat="49.24457" lon="6.1244">
        <ele>236.62</ele>
        <time>2021-07-22T19:10:21Z</time>
      </trkpt>
      <trkpt lat="49.24457" lon="6.1244">
        <ele>236.62</ele>
        <time>2021-07-22T19:10:22Z</time>
      </trkpt>
      <trkpt lat="49.24451" lon="6.12444">
        <ele>236.14</ele>
        <time>2021-07-22T19:10:23Z</time>
      </trkpt>
      <trkpt lat="49.24447" lon="6.12448">
        <ele>236.14</ele>
        <time>2021-07-22T19:10:24Z</time>
      </trkpt>
      <trkpt lat="49.24442" lon="6.12452">
        <ele>235.66</ele>
        <time>2021-07-22T19:10:25Z</time>
      </trkpt>
      <trkpt lat="49.24437" lon="6.12456">
        <ele>235.66</ele>
        <time>2021-07-22T19:10:26Z</time>
      </trkpt>
      <trkpt lat="49.24432" lon="6.1246">
        <ele>235.18</ele>
        <time>2021-07-22T19:10:27Z</time>
      </trkpt>
      <trkpt lat="49.24419" lon="6.12471">
        <ele>235.18</ele>
        <time>2021-07-22T19:10:34Z</time>
      </trkpt>
      <trkpt lat="49.24419" lon="6.12471">
        <ele>235.66</ele>
        <time>2021-07-22T19:11:12Z</time>
      </trkpt>
      <trkpt lat="49.24419" lon="6.12471">
        <ele>236.62</ele>
        <time>2021-07-22T19:11:30Z</time>
      </trkpt>
      <trkpt lat="49.24419" lon="6.12471">
        <ele>236.62</ele>
        <time>2021-07-22T19:11:46Z</time>
      </trkpt>
      <trkpt lat="49.24419" lon="6.12471">
        <ele>236.62</ele>
        <time>2021-07-22T19:11:48Z</time>
      </trkpt>
      <trkpt lat="49.24443" lon="6.12451">
        <ele>236.62</ele>
        <time>2021-07-22T19:11:49Z</time>
      </trkpt>
      <trkpt lat="49.24445" lon="6.12449">
        <ele>236.62</ele>
        <time>2021-07-22T19:11:50Z</time>
      </trkpt>
      <trkpt lat="49.24466" lon="6.12437">
        <ele>236.62</ele>
        <time>2021-07-22T19:11:54Z</time>
      </trkpt>
      <trkpt lat="49.24471" lon="6.12437">
        <ele>236.62</ele>
        <time>2021-07-22T19:11:55Z</time>
      </trkpt>
      <trkpt lat="49.24478" lon="6.12438">
        <ele>236.62</ele>
        <time>2021-07-22T19:11:56Z</time>
      </trkpt>
      <trkpt lat="49.24485" lon="6.12438">
        <ele>236.14</ele>
        <time>2021-07-22T19:11:57Z</time>
      </trkpt>
      <trkpt lat="49.24493" lon="6.12444">
        <ele>236.62</ele>
        <time>2021-07-22T19:11:58Z</time>
      </trkpt>
      <trkpt lat="49.245" lon="6.1245">
        <ele>236.62</ele>
        <time>2021-07-22T19:11:59Z</time>
      </trkpt>
      <trkpt lat="49.24537" lon="6.12476">
        <ele>236.62</ele>
        <time>2021-07-22T19:12:04Z</time>
      </trkpt>
      <trkpt lat="49.24543" lon="6.1248">
        <ele>236.62</ele>
        <time>2021-07-22T19:12:05Z</time>
      </trkpt>
      <trkpt lat="49.24548" lon="6.12483">
        <ele>236.62</ele>
        <time>2021-07-22T19:12:06Z</time>
      </trkpt>
      <trkpt lat="49.24553" lon="6.12496">
        <ele>236.62</ele>
        <time>2021-07-22T19:12:07Z</time>
      </trkpt>
      <trkpt lat="49.24553" lon="6.1251">
        <ele>236.62</ele>
        <time>2021-07-22T19:12:08Z</time>
      </trkpt>
      <trkpt lat="49.24553" lon="6.1251">
        <ele>236.14</ele>
        <time>2021-07-22T19:12:09Z</time>
      </trkpt>
      <trkpt lat="49.24547" lon="6.12519">
        <ele>235.66</ele>
        <time>2021-07-22T19:12:10Z</time>
      </trkpt>
      <trkpt lat="49.24542" lon="6.12522">
        <ele>235.66</ele>
        <time>2021-07-22T19:12:11Z</time>
      </trkpt>
      <trkpt lat="49.24535" lon="6.12519">
        <ele>236.14</ele>
        <time>2021-07-22T19:12:12Z</time>
      </trkpt>
      <trkpt lat="49.24529" lon="6.12516">
        <ele>236.62</ele>
        <time>2021-07-22T19:12:13Z</time>
      </trkpt>
      <trkpt lat="49.24524" lon="6.12514">
        <ele>239.02</ele>
        <time>2021-07-22T19:12:14Z</time>
      </trkpt>
      <trkpt lat="49.24501" lon="6.12503">
        <ele>243.35</ele>
        <time>2021-07-22T19:12:18Z</time>
      </trkpt>
      <trkpt lat="49.24495" lon="6.125">
        <ele>244.79</ele>
        <time>2021-07-22T19:12:19Z</time>
      </trkpt>
      <trkpt lat="49.24489" lon="6.12497">
        <ele>245.75</ele>
        <time>2021-07-22T19:12:20Z</time>
      </trkpt>
      <trkpt lat="49.24482" lon="6.12494">
        <ele>246.23</ele>
        <time>2021-07-22T19:12:21Z</time>
      </trkpt>
      <trkpt lat="49.24477" lon="6.12493">
        <ele>247.2</ele>
        <time>2021-07-22T19:12:22Z</time>
      </trkpt>
      <trkpt lat="49.24471" lon="6.12496">
        <ele>247.2</ele>
        <time>2021-07-22T19:12:23Z</time>
      </trkpt>
      <trkpt lat="49.24465" lon="6.125">
        <ele>247.68</ele>
        <time>2021-07-22T19:12:24Z</time>
      </trkpt>
      <trkpt lat="49.24451" lon="6.12508">
        <ele>247.2</ele>
        <time>2021-07-22T19:12:25Z</time>
      </trkpt>
      <trkpt lat="49.24445" lon="6.12516">
        <ele>247.2</ele>
        <time>2021-07-22T19:12:26Z</time>
      </trkpt>
      <trkpt lat="49.2438" lon="6.12604">
        <ele>240.95</ele>
        <time>2021-07-22T19:12:37Z</time>
      </trkpt>
      <trkpt lat="49.2437" lon="6.12619">
        <ele>239.02</ele>
        <time>2021-07-22T19:12:41Z</time>
      </trkpt>
      <trkpt lat="49.24368" lon="6.12623">
        <ele>238.54</ele>
        <time>2021-07-22T19:12:42Z</time>
      </trkpt>
      <trkpt lat="49.24366" lon="6.12631">
        <ele>237.58</ele>
        <time>2021-07-22T19:12:43Z</time>
      </trkpt>
      <trkpt lat="49.24365" lon="6.12639">
        <ele>237.1</ele>
        <time>2021-07-22T19:12:44Z</time>
      </trkpt>
      <trkpt lat="49.24365" lon="6.12648">
        <ele>236.14</ele>
        <time>2021-07-22T19:12:45Z</time>
      </trkpt>
      <trkpt lat="49.24364" lon="6.12688">
        <ele>233.74</ele>
        <time>2021-07-22T19:12:48Z</time>
      </trkpt>
      <trkpt lat="49.24364" lon="6.12688">
        <ele>232.78</ele>
        <time>2021-07-22T19:12:49Z</time>
      </trkpt>
      <trkpt lat="49.24366" lon="6.12695">
        <ele>232.3</ele>
        <time>2021-07-22T19:12:50Z</time>
      </trkpt>
      <trkpt lat="49.24368" lon="6.12702">
        <ele>231.33</ele>
        <time>2021-07-22T19:12:51Z</time>
      </trkpt>
      <trkpt lat="49.2437" lon="6.12709">
        <ele>231.33</ele>
        <time>2021-07-22T19:12:52Z</time>
      </trkpt>
      <trkpt lat="49.24376" lon="6.12711">
        <ele>231.33</ele>
        <time>2021-07-22T19:12:53Z</time>
      </trkpt>
      <trkpt lat="49.24382" lon="6.12711">
        <ele>230.85</ele>
        <time>2021-07-22T19:12:54Z</time>
      </trkpt>
      <trkpt lat="49.24389" lon="6.1271">
        <ele>230.37</ele>
        <time>2021-07-22T19:12:55Z</time>
      </trkpt>
      <trkpt lat="49.24448" lon="6.12712">
        <ele>222.68</ele>
        <time>2021-07-22T19:13:05Z</time>
      </trkpt>
      <trkpt lat="49.2445" lon="6.12713">
        <ele>222.68</ele>
        <time>2021-07-22T19:13:06Z</time>
      </trkpt>
      <trkpt lat="49.2445" lon="6.12713">
        <ele>222.2</ele>
        <time>2021-07-22T19:13:07Z</time>
      </trkpt>
      <trkpt lat="49.24449" lon="6.12717">
        <ele>222.2</ele>
        <time>2021-07-22T19:13:08Z</time>
      </trkpt>
      <trkpt lat="49.24449" lon="6.12717">
        <ele>221.72</ele>
        <time>2021-07-22T19:13:09Z</time>
      </trkpt>
      <trkpt lat="49.24446" lon="6.12726">
        <ele>221.72</ele>
        <time>2021-07-22T19:13:10Z</time>
      </trkpt>
      <trkpt lat="49.24446" lon="6.12726">
        <ele>221.72</ele>
        <time>2021-07-22T19:13:11Z</time>
      </trkpt>
      <trkpt lat="49.24442" lon="6.12731">
        <ele>221.24</ele>
        <time>2021-07-22T19:13:12Z</time>
      </trkpt>
      <trkpt lat="49.24428" lon="6.12749">
        <ele>218.36</ele>
        <time>2021-07-22T19:13:14Z</time>
      </trkpt>
      <trkpt lat="49.24424" lon="6.1276">
        <ele>217.88</ele>
        <time>2021-07-22T19:13:15Z</time>
      </trkpt>
      <trkpt lat="49.24424" lon="6.1276">
        <ele>216.91</ele>
        <time>2021-07-22T19:13:16Z</time>
      </trkpt>
      <trkpt lat="49.24415" lon="6.12783">
        <ele>215.95</ele>
        <time>2021-07-22T19:13:18Z</time>
      </trkpt>
      <trkpt lat="49.24409" lon="6.12795">
        <ele>214.99</ele>
        <time>2021-07-22T19:13:19Z</time>
      </trkpt>
      <trkpt lat="49.24404" lon="6.12806">
        <ele>214.03</ele>
        <time>2021-07-22T19:13:20Z</time>
      </trkpt>
      <trkpt lat="49.24395" lon="6.12823">
        <ele>213.07</ele>
        <time>2021-07-22T19:13:22Z</time>
      </trkpt>
      <trkpt lat="49.24392" lon="6.12829">
        <ele>212.59</ele>
        <time>2021-07-22T19:13:23Z</time>
      </trkpt>
      <trkpt lat="49.24389" lon="6.12835">
        <ele>212.11</ele>
        <time>2021-07-22T19:13:24Z</time>
      </trkpt>
      <trkpt lat="49.24388" lon="6.12841">
        <ele>211.15</ele>
        <time>2021-07-22T19:13:25Z</time>
      </trkpt>
      <trkpt lat="49.24389" lon="6.12849">
        <ele>210.19</ele>
        <time>2021-07-22T19:13:26Z</time>
      </trkpt>
      <trkpt lat="49.2439" lon="6.12859">
        <ele>209.22</ele>
        <time>2021-07-22T19:13:27Z</time>
      </trkpt>
      <trkpt lat="49.24391" lon="6.12869">
        <ele>208.26</ele>
        <time>2021-07-22T19:13:28Z</time>
      </trkpt>
      <trkpt lat="49.24393" lon="6.12881">
        <ele>207.78</ele>
        <time>2021-07-22T19:13:29Z</time>
      </trkpt>
      <trkpt lat="49.24397" lon="6.12922">
        <ele>205.86</ele>
        <time>2021-07-22T19:13:31Z</time>
      </trkpt>
      <trkpt lat="49.24403" lon="6.12941">
        <ele>204.42</ele>
        <time>2021-07-22T19:13:33Z</time>
      </trkpt>
      <trkpt lat="49.24441" lon="6.13019">
        <ele>203.94</ele>
        <time>2021-07-22T19:13:41Z</time>
      </trkpt>
      <trkpt lat="49.24441" lon="6.13019">
        <ele>205.38</ele>
        <time>2021-07-22T19:13:43Z</time>
      </trkpt>
      <trkpt lat="49.24442" lon="6.13021">
        <ele>205.86</ele>
        <time>2021-07-22T19:13:44Z</time>
      </trkpt>
      <trkpt lat="49.24443" lon="6.13023">
        <ele>206.34</ele>
        <time>2021-07-22T19:13:45Z</time>
      </trkpt>
      <trkpt lat="49.24441" lon="6.13031">
        <ele>206.34</ele>
        <time>2021-07-22T19:13:46Z</time>
      </trkpt>
      <trkpt lat="49.24438" lon="6.13033">
        <ele>205.86</ele>
        <time>2021-07-22T19:13:47Z</time>
      </trkpt>
      <trkpt lat="49.24434" lon="6.13036">
        <ele>205.86</ele>
        <time>2021-07-22T19:13:48Z</time>
      </trkpt>
      <trkpt lat="49.24412" lon="6.13044">
        <ele>206.82</ele>
        <time>2021-07-22T19:13:57Z</time>
      </trkpt>
      <trkpt lat="49.24412" lon="6.13044">
        <ele>206.82</ele>
        <time>2021-07-22T19:13:58Z</time>
      </trkpt>
      <trkpt lat="49.2441" lon="6.1304">
        <ele>206.82</ele>
        <time>2021-07-22T19:13:59Z</time>
      </trkpt>
      <trkpt lat="49.24409" lon="6.13037">
        <ele>207.3</ele>
        <time>2021-07-22T19:14:00Z</time>
      </trkpt>
      <trkpt lat="49.24376" lon="6.12966">
        <ele>209.22</ele>
        <time>2021-07-22T19:14:10Z</time>
      </trkpt>
      <trkpt lat="49.24323" lon="6.12842">
        <ele>213.55</ele>
        <time>2021-07-22T19:14:24Z</time>
      </trkpt>
      <trkpt lat="49.24287" lon="6.12754">
        <ele>216.43</ele>
        <time>2021-07-22T19:14:34Z</time>
      </trkpt>
      <trkpt lat="49.24284" lon="6.12747">
        <ele>216.43</ele>
        <time>2021-07-22T19:14:35Z</time>
      </trkpt>
      <trkpt lat="49.24281" lon="6.12741">
        <ele>216.43</ele>
        <time>2021-07-22T19:14:36Z</time>
      </trkpt>
      <trkpt lat="49.24277" lon="6.12741">
        <ele>216.43</ele>
        <time>2021-07-22T19:14:37Z</time>
      </trkpt>
      <trkpt lat="49.2427" lon="6.12736">
        <ele>216.43</ele>
        <time>2021-07-22T19:14:38Z</time>
      </trkpt>
      <trkpt lat="49.24267" lon="6.12729">
        <ele>216.43</ele>
        <time>2021-07-22T19:14:39Z</time>
      </trkpt>
      <trkpt lat="49.24264" lon="6.12722">
        <ele>215.47</ele>
        <time>2021-07-22T19:14:40Z</time>
      </trkpt>
      <trkpt lat="49.24261" lon="6.12714">
        <ele>216.43</ele>
        <time>2021-07-22T19:14:41Z</time>
      </trkpt>
      <trkpt lat="49.24204" lon="6.1257">
        <ele>219.8</ele>
        <time>2021-07-22T19:14:57Z</time>
      </trkpt>
      <trkpt lat="49.2413" lon="6.12406">
        <ele>221.24</ele>
        <time>2021-07-22T19:15:12Z</time>
      </trkpt>
      <trkpt lat="49.24113" lon="6.1237">
        <ele>221.24</ele>
        <time>2021-07-22T19:15:17Z</time>
      </trkpt>
      <trkpt lat="49.24111" lon="6.12365">
        <ele>221.24</ele>
        <time>2021-07-22T19:15:18Z</time>
      </trkpt>
      <trkpt lat="49.24109" lon="6.1236">
        <ele>221.24</ele>
        <time>2021-07-22T19:15:19Z</time>
      </trkpt>
      <trkpt lat="49.24107" lon="6.12355">
        <ele>221.24</ele>
        <time>2021-07-22T19:15:20Z</time>
      </trkpt>
      <trkpt lat="49.24105" lon="6.12351">
        <ele>221.24</ele>
        <time>2021-07-22T19:15:21Z</time>
      </trkpt>
      <trkpt lat="49.24102" lon="6.12345">
        <ele>221.72</ele>
        <time>2021-07-22T19:15:31Z</time>
      </trkpt>
      <trkpt lat="49.24069" lon="6.12349">
        <ele>222.68</ele>
        <time>2021-07-22T19:15:47Z</time>
      </trkpt>
      <trkpt lat="49.24028" lon="6.12341">
        <ele>225.09</ele>
        <time>2021-07-22T19:16:00Z</time>
      </trkpt>
      <trkpt lat="49.24007" lon="6.12337">
        <ele>224.12</ele>
        <time>2021-07-22T19:16:58Z</time>
      </trkpt>
      <trkpt lat="49.23985" lon="6.12331">
        <ele>223.16</ele>
        <time>2021-07-22T19:17:11Z</time>
      </trkpt>
      <trkpt lat="49.23987" lon="6.12331">
        <ele>223.16</ele>
        <time>2021-07-22T19:17:35Z</time>
      </trkpt>
      <trkpt lat="49.23988" lon="6.1233">
        <ele>223.16</ele>
        <time>2021-07-22T19:18:01Z</time>
      </trkpt>
      <trkpt lat="49.23989" lon="6.12331">
        <ele>223.16</ele>
        <time>2021-07-22T19:18:31Z</time>
      </trkpt>
      <trkpt lat="49.23994" lon="6.12331">
        <ele>223.16</ele>
        <time>2021-07-22T19:18:50Z</time>
      </trkpt>
      <trkpt lat="49.23995" lon="6.12332">
        <ele>223.16</ele>
        <time>2021-07-22T19:18:51Z</time>
      </trkpt>
      <trkpt lat="49.24038" lon="6.12342">
        <ele>219.8</ele>
        <time>2021-07-22T19:19:00Z</time>
      </trkpt>
      <trkpt lat="49.24105" lon="6.12351">
        <ele>216.91</ele>
        <time>2021-07-22T19:19:11Z</time>
      </trkpt>
      <trkpt lat="49.24111" lon="6.12365">
        <ele>217.88</ele>
        <time>2021-07-22T19:19:13Z</time>
      </trkpt>
      <trkpt lat="49.24115" lon="6.12373">
        <ele>217.88</ele>
        <time>2021-07-22T19:19:14Z</time>
      </trkpt>
      <trkpt lat="49.24122" lon="6.1239">
        <ele>217.88</ele>
        <time>2021-07-22T19:19:15Z</time>
      </trkpt>
      <trkpt lat="49.24122" lon="6.1239">
        <ele>217.4</ele>
        <time>2021-07-22T19:19:16Z</time>
      </trkpt>
      <trkpt lat="49.24126" lon="6.12399">
        <ele>217.88</ele>
        <time>2021-07-22T19:19:17Z</time>
      </trkpt>
      <trkpt lat="49.24131" lon="6.12409">
        <ele>218.36</ele>
        <time>2021-07-22T19:19:18Z</time>
      </trkpt>
      <trkpt lat="49.24218" lon="6.12605">
        <ele>220.76</ele>
        <time>2021-07-22T19:19:35Z</time>
      </trkpt>
      <trkpt lat="49.24262" lon="6.12717">
        <ele>218.84</ele>
        <time>2021-07-22T19:19:49Z</time>
      </trkpt>
      <trkpt lat="49.24268" lon="6.12731">
        <ele>218.36</ele>
        <time>2021-07-22T19:19:51Z</time>
      </trkpt>
      <trkpt lat="49.24271" lon="6.12738">
        <ele>217.88</ele>
        <time>2021-07-22T19:19:52Z</time>
      </trkpt>
      <trkpt lat="49.24272" lon="6.12748">
        <ele>217.88</ele>
        <time>2021-07-22T19:19:53Z</time>
      </trkpt>
      <trkpt lat="49.24272" lon="6.12755">
        <ele>217.4</ele>
        <time>2021-07-22T19:19:54Z</time>
      </trkpt>
      <trkpt lat="49.24274" lon="6.12759">
        <ele>216.91</ele>
        <time>2021-07-22T19:19:55Z</time>
      </trkpt>
      <trkpt lat="49.24277" lon="6.12764">
        <ele>216.43</ele>
        <time>2021-07-22T19:19:56Z</time>
      </trkpt>
      <trkpt lat="49.2428" lon="6.1277">
        <ele>216.43</ele>
        <time>2021-07-22T19:19:57Z</time>
      </trkpt>
      <trkpt lat="49.24282" lon="6.12776">
        <ele>216.43</ele>
        <time>2021-07-22T19:19:58Z</time>
      </trkpt>
      <trkpt lat="49.24285" lon="6.12781">
        <ele>215.47</ele>
        <time>2021-07-22T19:19:59Z</time>
      </trkpt>
      <trkpt lat="49.24287" lon="6.12787">
        <ele>214.99</ele>
        <time>2021-07-22T19:20:00Z</time>
      </trkpt>
      <trkpt lat="49.2429" lon="6.12793">
        <ele>214.51</ele>
        <time>2021-07-22T19:20:01Z</time>
      </trkpt>
      <trkpt lat="49.24293" lon="6.128">
        <ele>214.51</ele>
        <time>2021-07-22T19:20:02Z</time>
      </trkpt>
      <trkpt lat="49.24299" lon="6.12814">
        <ele>213.55</ele>
        <time>2021-07-22T19:20:04Z</time>
      </trkpt>
      <trkpt lat="49.24302" lon="6.12821">
        <ele>213.55</ele>
        <time>2021-07-22T19:20:05Z</time>
      </trkpt>
      <trkpt lat="49.24304" lon="6.12827">
        <ele>213.07</ele>
        <time>2021-07-22T19:20:06Z</time>
      </trkpt>
      <trkpt lat="49.24309" lon="6.12839">
        <ele>212.59</ele>
        <time>2021-07-22T19:20:08Z</time>
      </trkpt>
      <trkpt lat="49.24312" lon="6.12845">
        <ele>212.59</ele>
        <time>2021-07-22T19:20:09Z</time>
      </trkpt>
      <trkpt lat="49.24314" lon="6.1285">
        <ele>212.11</ele>
        <time>2021-07-22T19:20:10Z</time>
      </trkpt>
      <trkpt lat="49.24316" lon="6.12855">
        <ele>212.11</ele>
        <time>2021-07-22T19:20:11Z</time>
      </trkpt>
      <trkpt lat="49.2432" lon="6.12862">
        <ele>211.63</ele>
        <time>2021-07-22T19:20:12Z</time>
      </trkpt>
      <trkpt lat="49.24337" lon="6.12895">
        <ele>209.22</ele>
        <time>2021-07-22T19:20:19Z</time>
      </trkpt>
      <trkpt lat="49.24336" lon="6.12911">
        <ele>208.74</ele>
        <time>2021-07-22T19:20:21Z</time>
      </trkpt>
      <trkpt lat="49.24336" lon="6.12911">
        <ele>208.74</ele>
        <time>2021-07-22T19:20:22Z</time>
      </trkpt>
      <trkpt lat="49.24338" lon="6.12917">
        <ele>208.26</ele>
        <time>2021-07-22T19:20:23Z</time>
      </trkpt>
      <trkpt lat="49.24341" lon="6.12924">
        <ele>208.26</ele>
        <time>2021-07-22T19:20:24Z</time>
      </trkpt>
      <trkpt lat="49.24344" lon="6.12932">
        <ele>208.26</ele>
        <time>2021-07-22T19:20:25Z</time>
      </trkpt>
      <trkpt lat="49.24391" lon="6.13039">
        <ele>207.78</ele>
        <time>2021-07-22T19:20:38Z</time>
      </trkpt>
      <trkpt lat="49.24396" lon="6.1305">
        <ele>208.74</ele>
        <time>2021-07-22T19:20:45Z</time>
      </trkpt>
      <trkpt lat="49.24396" lon="6.1305">
        <ele>208.74</ele>
        <time>2021-07-22T19:20:47Z</time>
      </trkpt>
      <trkpt lat="49.24398" lon="6.13056">
        <ele>208.74</ele>
        <time>2021-07-22T19:20:48Z</time>
      </trkpt>
      <trkpt lat="49.24402" lon="6.13054">
        <ele>208.74</ele>
        <time>2021-07-22T19:20:49Z</time>
      </trkpt>
      <trkpt lat="49.24405" lon="6.13053">
        <ele>208.74</ele>
        <time>2021-07-22T19:20:50Z</time>
      </trkpt>
      <trkpt lat="49.24409" lon="6.1305">
        <ele>209.22</ele>
        <time>2021-07-22T19:20:51Z</time>
      </trkpt>
      <trkpt lat="49.24413" lon="6.13048">
        <ele>209.7</ele>
        <time>2021-07-22T19:20:52Z</time>
      </trkpt>
      <trkpt lat="49.24429" lon="6.13038">
        <ele>211.15</ele>
        <time>2021-07-22T19:20:55Z</time>
      </trkpt>
      <trkpt lat="49.24435" lon="6.13035">
        <ele>211.63</ele>
        <time>2021-07-22T19:20:56Z</time>
      </trkpt>
      <trkpt lat="49.24441" lon="6.13031">
        <ele>212.11</ele>
        <time>2021-07-22T19:20:57Z</time>
      </trkpt>
      <trkpt lat="49.2445" lon="6.13034">
        <ele>212.59</ele>
        <time>2021-07-22T19:20:58Z</time>
      </trkpt>
      <trkpt lat="49.24455" lon="6.1304">
        <ele>212.59</ele>
        <time>2021-07-22T19:20:59Z</time>
      </trkpt>
      <trkpt lat="49.24461" lon="6.13046">
        <ele>213.07</ele>
        <time>2021-07-22T19:21:00Z</time>
      </trkpt>
      <trkpt lat="49.24477" lon="6.13065">
        <ele>212.59</ele>
        <time>2021-07-22T19:21:03Z</time>
      </trkpt>
      <trkpt lat="49.2448" lon="6.13074">
        <ele>212.11</ele>
        <time>2021-07-22T19:21:04Z</time>
      </trkpt>
      <trkpt lat="49.24484" lon="6.13084">
        <ele>211.63</ele>
        <time>2021-07-22T19:21:05Z</time>
      </trkpt>
      <trkpt lat="49.24521" lon="6.13168">
        <ele>208.74</ele>
        <time>2021-07-22T19:21:14Z</time>
      </trkpt>
      <trkpt lat="49.24529" lon="6.13183">
        <ele>208.26</ele>
        <time>2021-07-22T19:21:15Z</time>
      </trkpt>
      <trkpt lat="49.24541" lon="6.1319">
        <ele>207.3</ele>
        <time>2021-07-22T19:21:21Z</time>
      </trkpt>
      <trkpt lat="49.24576" lon="6.13195">
        <ele>204.9</ele>
        <time>2021-07-22T19:21:32Z</time>
      </trkpt>
      <trkpt lat="49.24605" lon="6.13178">
        <ele>202.98</ele>
        <time>2021-07-22T19:21:42Z</time>
      </trkpt>
      <trkpt lat="49.24609" lon="6.13175">
        <ele>202.49</ele>
        <time>2021-07-22T19:21:43Z</time>
      </trkpt>
      <trkpt lat="49.24621" lon="6.13171">
        <ele>202.49</ele>
        <time>2021-07-22T19:21:44Z</time>
      </trkpt>
      <trkpt lat="49.24627" lon="6.13176">
        <ele>202.01</ele>
        <time>2021-07-22T19:21:45Z</time>
      </trkpt>
      <trkpt lat="49.24627" lon="6.13176">
        <ele>202.01</ele>
        <time>2021-07-22T19:21:46Z</time>
      </trkpt>
      <trkpt lat="49.2463" lon="6.13178">
        <ele>201.53</ele>
        <time>2021-07-22T19:21:47Z</time>
      </trkpt>
      <trkpt lat="49.24632" lon="6.1318">
        <ele>201.53</ele>
        <time>2021-07-22T19:21:48Z</time>
      </trkpt>
      <trkpt lat="49.24651" lon="6.13209">
        <ele>200.09</ele>
        <time>2021-07-22T19:21:56Z</time>
      </trkpt>
      <trkpt lat="49.24653" lon="6.13214">
        <ele>199.61</ele>
        <time>2021-07-22T19:21:57Z</time>
      </trkpt>
      <trkpt lat="49.24655" lon="6.13221">
        <ele>199.13</ele>
        <time>2021-07-22T19:21:58Z</time>
      </trkpt>
      <trkpt lat="49.24696" lon="6.13327">
        <ele>200.09</ele>
        <time>2021-07-22T19:22:06Z</time>
      </trkpt>
      <trkpt lat="49.24731" lon="6.13401">
        <ele>202.98</ele>
        <time>2021-07-22T19:22:11Z</time>
      </trkpt>
      <trkpt lat="49.24737" lon="6.13414">
        <ele>202.98</ele>
        <time>2021-07-22T19:22:12Z</time>
      </trkpt>
      <trkpt lat="49.24741" lon="6.13428">
        <ele>200.57</ele>
        <time>2021-07-22T19:22:13Z</time>
      </trkpt>
      <trkpt lat="49.24744" lon="6.13441">
        <ele>200.57</ele>
        <time>2021-07-22T19:22:14Z</time>
      </trkpt>
      <trkpt lat="49.24746" lon="6.1345">
        <ele>199.13</ele>
        <time>2021-07-22T19:22:15Z</time>
      </trkpt>
      <trkpt lat="49.24748" lon="6.13468">
        <ele>198.17</ele>
        <time>2021-07-22T19:22:18Z</time>
      </trkpt>
      <trkpt lat="49.24743" lon="6.13552">
        <ele>201.05</ele>
        <time>2021-07-22T19:22:25Z</time>
      </trkpt>
      <trkpt lat="49.24727" lon="6.13664">
        <ele>202.98</ele>
        <time>2021-07-22T19:22:35Z</time>
      </trkpt>
      <trkpt lat="49.24726" lon="6.13675">
        <ele>202.98</ele>
        <time>2021-07-22T19:22:36Z</time>
      </trkpt>
      <trkpt lat="49.24725" lon="6.13685">
        <ele>202.49</ele>
        <time>2021-07-22T19:22:37Z</time>
      </trkpt>
      <trkpt lat="49.24727" lon="6.13694">
        <ele>202.49</ele>
        <time>2021-07-22T19:22:38Z</time>
      </trkpt>
      <trkpt lat="49.24729" lon="6.13704">
        <ele>202.98</ele>
        <time>2021-07-22T19:22:39Z</time>
      </trkpt>
      <trkpt lat="49.24732" lon="6.13722">
        <ele>202.98</ele>
        <time>2021-07-22T19:22:40Z</time>
      </trkpt>
      <trkpt lat="49.24732" lon="6.13722">
        <ele>202.01</ele>
        <time>2021-07-22T19:22:41Z</time>
      </trkpt>
      <trkpt lat="49.24734" lon="6.13729">
        <ele>202.49</ele>
        <time>2021-07-22T19:22:42Z</time>
      </trkpt>
      <trkpt lat="49.24763" lon="6.13796">
        <ele>203.46</ele>
        <time>2021-07-22T19:22:57Z</time>
      </trkpt>
      <trkpt lat="49.24765" lon="6.13807">
        <ele>203.46</ele>
        <time>2021-07-22T19:22:59Z</time>
      </trkpt>
      <trkpt lat="49.24764" lon="6.13809">
        <ele>202.98</ele>
        <time>2021-07-22T19:23:00Z</time>
      </trkpt>
      <trkpt lat="49.24762" lon="6.13813">
        <ele>202.98</ele>
        <time>2021-07-22T19:23:01Z</time>
      </trkpt>
      <trkpt lat="49.24759" lon="6.13817">
        <ele>202.98</ele>
        <time>2021-07-22T19:23:02Z</time>
      </trkpt>
      <trkpt lat="49.24756" lon="6.13821">
        <ele>202.49</ele>
        <time>2021-07-22T19:23:03Z</time>
      </trkpt>
      <trkpt lat="49.24753" lon="6.13825">
        <ele>202.49</ele>
        <time>2021-07-22T19:23:04Z</time>
      </trkpt>
      <trkpt lat="49.24748" lon="6.13831">
        <ele>202.49</ele>
        <time>2021-07-22T19:23:07Z</time>
      </trkpt>
      <trkpt lat="49.24739" lon="6.13839">
        <ele>202.01</ele>
        <time>2021-07-22T19:23:08Z</time>
      </trkpt>
      <trkpt lat="49.24737" lon="6.13856">
        <ele>202.01</ele>
        <time>2021-07-22T19:23:09Z</time>
      </trkpt>
      <trkpt lat="49.24747" lon="6.13859">
        <ele>201.53</ele>
        <time>2021-07-22T19:23:10Z</time>
      </trkpt>
      <trkpt lat="49.2475" lon="6.1386">
        <ele>201.05</ele>
        <time>2021-07-22T19:23:11Z</time>
      </trkpt>
      <trkpt lat="49.24753" lon="6.13861">
        <ele>201.05</ele>
        <time>2021-07-22T19:23:12Z</time>
      </trkpt>
      <trkpt lat="49.24757" lon="6.13856">
        <ele>200.57</ele>
        <time>2021-07-22T19:23:13Z</time>
      </trkpt>
      <trkpt lat="49.24759" lon="6.13853">
        <ele>200.09</ele>
        <time>2021-07-22T19:23:14Z</time>
      </trkpt>
      <trkpt lat="49.24759" lon="6.13853">
        <ele>200.09</ele>
        <time>2021-07-22T19:23:15Z</time>
      </trkpt>
      <trkpt lat="49.24798" lon="6.13814">
        <ele>201.53</ele>
        <time>2021-07-22T19:23:28Z</time>
      </trkpt>
      <trkpt lat="49.24799" lon="6.13813">
        <ele>202.01</ele>
        <time>2021-07-22T19:24:03Z</time>
      </trkpt>
      <trkpt lat="49.24811" lon="6.13793">
        <ele>202.01</ele>
        <time>2021-07-22T19:24:14Z</time>
      </trkpt>
      <trkpt lat="49.24799" lon="6.13755">
        <ele>202.01</ele>
        <time>2021-07-22T19:24:26Z</time>
      </trkpt>
      <trkpt lat="49.24781" lon="6.13719">
        <ele>202.01</ele>
        <time>2021-07-22T19:24:39Z</time>
      </trkpt>
      <trkpt lat="49.2477" lon="6.13684">
        <ele>203.94</ele>
        <time>2021-07-22T19:24:51Z</time>
      </trkpt>
      <trkpt lat="49.24769" lon="6.13682">
        <ele>203.94</ele>
        <time>2021-07-22T19:24:52Z</time>
      </trkpt>
      <trkpt lat="49.24755" lon="6.13682">
        <ele>203.94</ele>
        <time>2021-07-22T19:24:59Z</time>
      </trkpt>
      <trkpt lat="49.24759" lon="6.13714">
        <ele>202.98</ele>
        <time>2021-07-22T19:25:14Z</time>
      </trkpt>
      <trkpt lat="49.2476" lon="6.13718">
        <ele>203.94</ele>
        <time>2021-07-22T19:25:41Z</time>
      </trkpt>
      <trkpt lat="49.2476" lon="6.13717">
        <ele>203.94</ele>
        <time>2021-07-22T19:26:58Z</time>
      </trkpt>
      <trkpt lat="49.24757" lon="6.13717">
        <ele>204.42</ele>
        <time>2021-07-22T19:27:20Z</time>
      </trkpt>
      <trkpt lat="49.24756" lon="6.13716">
        <ele>204.42</ele>
        <time>2021-07-22T19:29:21Z</time>
      </trkpt>
    </trkseg>
  </trk>
</gpx>